Time;durP1;ratioP1;P1;durP2;ratioP2;P2;SDS_P1;SDS_P2;PMS_P1;PMS_P2;Temp;Humidity;BMP_temperature;BMP_pressure;BME280_temperature;BME280_humidity;BME280_pressure;Samples;Min_cycle;Max_cycle;Signal;HPM_P1;HPM_P2
2024/03/29 00:01:29;;;;;;;5.25;0.40;;;8.00;99.90;;;;;;6154530;23;20005;-79
2024/03/29 00:03:56;;;;;;;3.25;0.40;;;8.00;99.90;;;;;;6154157;23;20004;-79
2024/03/29 00:06:22;;;;;;;4.13;0.65;;;8.00;99.90;;;;;;6154721;23;20005;-79
2024/03/29 00:08:48;;;;;;;2.63;0.50;;;7.90;99.90;;;;;;6119435;23;20005;-79
2024/03/29 00:11:15;;;;;;;2.67;0.30;;;7.90;99.90;;;;;;6154099;23;20007;-79
2024/03/29 00:13:41;;;;;;;2.53;0.40;;;7.90;99.90;;;;;;6094352;23;20012;-79
2024/03/29 00:16:07;;;;;;;5.97;0.40;;;7.80;99.90;;;;;;6143953;23;20013;-79
2024/03/29 00:18:34;;;;;;;1.35;0.30;;;7.80;99.90;;;;;;6121714;23;20005;-79
2024/03/29 00:21:00;;;;;;;6.05;0.40;;;7.70;99.90;;;;;;6121409;23;20004;-79
2024/03/29 00:23:28;;;;;;;3.42;0.50;;;7.80;99.90;;;;;;6096717;23;20044;-78
2024/03/29 00:25:58;;;;;;;3.60;0.75;;;7.80;99.90;;;;;;6155997;23;20008;-79
2024/03/29 00:28:24;;;;;;;3.50;0.32;;;7.80;99.90;;;;;;6097221;23;20005;-80
2024/03/29 00:30:50;;;;;;;2.35;0.47;;;7.80;99.90;;;;;;6131333;23;20012;-79
2024/03/29 00:33:17;;;;;;;2.63;0.40;;;7.80;99.90;;;;;;6097094;23;20502;-79
2024/03/29 00:35:43;;;;;;;2.42;0.38;;;7.80;99.90;;;;;;6156382;23;20658;-79
2024/03/29 00:38:09;;;;;;;1.60;0.30;;;7.80;99.90;;;;;;6122512;23;20028;-79
2024/03/29 00:40:36;;;;;;;2.83;0.45;;;7.80;99.90;;;;;;6145960;23;20334;-79
2024/03/29 00:43:02;;;;;;;3.50;0.45;;;7.80;99.90;;;;;;6120769;23;20509;-79
2024/03/29 00:45:28;;;;;;;2.45;0.40;;;7.70;99.90;;;;;;6131240;23;20012;-79
2024/03/29 00:47:55;;;;;;;2.38;0.40;;;7.80;99.90;;;;;;6146285;23;20012;-80
2024/03/29 00:50:22;;;;;;;3.55;0.65;;;7.80;99.90;;;;;;6182178;23;20028;-81
2024/03/29 00:52:48;;;;;;;4.63;1.15;;;7.80;99.90;;;;;;6120921;23;20429;-80
2024/03/29 00:55:14;;;;;;;5.75;0.60;;;7.80;99.90;;;;;;6155003;23;20005;-80
2024/03/29 00:57:41;;;;;;;4.63;0.50;;;7.80;99.90;;;;;;6146410;23;20563;-79
2024/03/29 01:00:10;;;;;;;5.22;0.50;;;7.80;99.90;;;;;;6144550;23;20013;-80
2024/03/29 01:02:36;;;;;;;3.50;0.50;;;7.80;99.90;;;;;;6121672;23;20001;-80
2024/03/29 01:05:03;;;;;;;4.10;0.52;;;7.90;99.90;;;;;;6155505;23;20012;-80
2024/03/29 01:07:30;;;;;;;3.33;0.40;;;7.90;99.90;;;;;;6097702;23;20817;-80
2024/03/29 01:09:56;;;;;;;2.22;0.60;;;7.90;99.90;;;;;;6181674;23;20002;-80
2024/03/29 01:12:23;;;;;;;2.45;0.43;;;8.00;99.90;;;;;;6131661;23;20726;-80
2024/03/29 01:14:49;;;;;;;3.35;0.50;;;7.90;99.90;;;;;;6145476;23;20009;-80
2024/03/29 01:17:15;;;;;;;3.63;0.88;;;7.90;99.90;;;;;;6097449;23;20036;-79
2024/03/29 01:19:42;;;;;;;2.08;0.40;;;7.90;99.90;;;;;;6130237;23;20034;-79
2024/03/29 01:22:08;;;;;;;2.80;0.30;;;7.90;99.90;;;;;;6131160;23;20001;-80
2024/03/29 01:24:34;;;;;;;3.22;0.30;;;7.90;99.90;;;;;;6144248;23;20020;-80
2024/03/29 01:27:01;;;;;;;2.88;0.30;;;7.90;99.90;;;;;;6121139;23;20008;-80
2024/03/29 01:29:27;;;;;;;3.13;0.40;;;7.90;99.90;;;;;;6130346;23;20330;-79
2024/03/29 01:31:54;;;;;;;2.97;0.20;;;7.90;99.90;;;;;;6130974;23;20016;-80
2024/03/29 01:34:20;;;;;;;2.67;0.40;;;7.90;99.90;;;;;;6144508;23;20016;-80
2024/03/29 01:36:47;;;;;;;3.63;0.30;;;7.90;99.90;;;;;;6120452;23;20008;-80
2024/03/29 01:39:15;;;;;;;1.55;0.30;;;7.90;99.90;;;;;;6181225;23;20013;-80
2024/03/29 01:41:41;;;;;;;2.25;0.40;;;7.90;99.90;;;;;;6121138;23;20461;-80
2024/03/29 01:44:08;;;;;;;3.13;0.55;;;7.90;99.90;;;;;;6120846;23;20009;-80
2024/03/29 01:46:36;;;;;;;2.22;0.35;;;7.90;99.90;;;;;;6121159;23;20311;-79
2024/03/29 01:49:04;;;;;;;3.22;0.30;;;7.90;99.90;;;;;;6131126;23;20474;-80
2024/03/29 01:51:32;;;;;;;4.47;0.40;;;7.90;99.90;;;;;;6120452;23;20001;-79
2024/03/29 01:54:00;;;;;;;1.95;0.40;;;7.90;99.90;;;;;;6121307;23;20392;-80
2024/03/29 01:56:27;;;;;;;3.05;0.60;;;7.90;99.90;;;;;;6096469;23;20498;-80
2024/03/29 01:58:56;;;;;;;1.60;0.30;;;7.90;99.90;;;;;;6096737;23;20008;-79
2024/03/29 02:01:26;;;;;;;2.00;0.40;;;7.90;99.90;;;;;;6120481;23;20009;-80
2024/03/29 02:03:52;;;;;;;2.53;0.20;;;7.90;99.90;;;;;;6097529;23;20005;-80
2024/03/29 02:06:19;;;;;;;2.60;0.30;;;7.80;99.90;;;;;;6121633;23;20017;-81
2024/03/29 02:08:48;;;;;;;2.17;0.30;;;7.80;99.90;;;;;;6131481;23;20001;-81
2024/03/29 02:11:15;;;;;;;1.55;0.20;;;7.80;99.90;;;;;;6096550;23;20005;-79
2024/03/29 02:13:41;;;;;;;3.05;0.40;;;7.70;99.90;;;;;;6096847;23;20012;-79
2024/03/29 02:16:08;;;;;;;2.80;0.28;;;7.70;99.90;;;;;;6121262;23;20199;-80
2024/03/29 02:18:34;;;;;;;3.33;0.50;;;7.70;99.90;;;;;;6096517;23;20012;-80
2024/03/29 02:21:01;;;;;;;1.73;0.30;;;7.70;99.90;;;;;;6154659;23;20013;-79
2024/03/29 02:23:29;;;;;;;3.08;0.50;;;7.70;99.90;;;;;;6095859;23;20013;-80
2024/03/29 02:25:56;;;;;;;1.15;0.25;;;7.70;99.90;;;;;;6095555;23;20005;-79
2024/03/29 02:28:23;;;;;;;1.67;0.30;;;7.70;99.90;;;;;;6120548;23;20009;-80
2024/03/29 02:30:52;;;;;;;2.67;0.40;;;7.70;99.90;;;;;;6119229;23;20017;-80
2024/03/29 02:33:21;;;;;;;3.05;0.47;;;7.70;99.90;;;;;;6153948;23;20005;-79
2024/03/29 02:35:48;;;;;;;5.22;0.40;;;7.80;99.90;;;;;;6119408;23;20005;-80
2024/03/29 02:38:14;;;;;;;2.38;0.40;;;7.80;99.90;;;;;;6154380;23;20001;-80
2024/03/29 02:40:41;;;;;;;2.67;0.52;;;7.90;99.90;;;;;;6129702;23;20005;-79
2024/03/29 02:43:07;;;;;;;2.38;0.40;;;7.80;99.90;;;;;;6154788;23;20001;-79
2024/03/29 02:45:33;;;;;;;2.00;0.30;;;7.90;99.90;;;;;;6130315;23;20608;-80
2024/03/29 02:47:59;;;;;;;2.00;0.77;;;7.90;99.90;;;;;;6095934;23;20464;-78
2024/03/29 02:50:26;;;;;;;2.65;0.50;;;8.00;99.90;;;;;;6129351;23;20365;-79
2024/03/29 02:52:52;;;;;;;1.30;0.20;;;8.00;99.90;;;;;;6129405;23;20001;-79
2024/03/29 02:55:18;;;;;;;2.58;0.52;;;8.00;99.90;;;;;;6119823;23;20326;-79
2024/03/29 02:57:45;;;;;;;2.75;0.50;;;8.00;99.90;;;;;;6155288;23;20420;-79
2024/03/29 03:00:12;;;;;;;4.65;0.30;;;8.00;99.90;;;;;;6120144;23;20055;-79
2024/03/29 03:02:39;;;;;;;3.28;0.57;;;8.10;99.90;;;;;;6120124;23;20432;-79
2024/03/29 03:05:06;;;;;;;2.20;0.45;;;8.10;99.90;;;;;;6095660;23;20426;-79
2024/03/29 03:13:04;;;;;;;4.00;0.45;;;8.20;99.90;;;;;;6146263;23;20426;-79
2024/03/29 03:15:30;;;;;;;1.85;0.30;;;8.30;99.90;;;;;;6147744;23;20016;-79
2024/03/29 03:17:56;;;;;;;3.80;0.30;;;8.30;99.90;;;;;;6133920;23;19997;-79
2024/03/29 03:20:27;;;;;;;3.05;0.30;;;8.30;99.90;;;;;;6147790;23;20009;-79
2024/03/29 03:22:55;;;;;;;4.47;0.35;;;8.40;99.90;;;;;;6157901;23;20035;-79
2024/03/29 03:25:22;;;;;;;3.28;0.30;;;8.40;99.90;;;;;;6122986;23;20019;-80
2024/03/29 03:27:48;;;;;;;1.40;0.25;;;8.40;99.90;;;;;;6123576;23;20009;-80
2024/03/29 03:30:15;;;;;;;2.83;0.25;;;8.40;99.90;;;;;;6117893;23;20016;-79
2024/03/29 03:32:42;;;;;;;3.30;0.40;;;8.40;99.90;;;;;;6121409;23;20001;-79
2024/03/29 03:35:08;;;;;;;4.97;0.40;;;8.40;99.90;;;;;;6121820;23;20015;-80
2024/03/29 03:37:35;;;;;;;2.03;0.50;;;8.50;99.90;;;;;;6157147;23;20001;-80
2024/03/29 03:40:01;;;;;;;2.25;0.40;;;8.50;99.90;;;;;;6132135;23;20009;-79
2024/03/29 03:42:27;;;;;;;4.30;0.40;;;8.50;99.90;;;;;;6147428;23;20032;-79
2024/03/29 03:44:54;;;;;;;1.80;0.30;;;8.50;99.90;;;;;;6156898;23;19997;-79
2024/03/29 03:47:20;;;;;;;3.05;0.45;;;8.60;99.90;;;;;;6122489;23;20005;-79
2024/03/29 03:49:47;;;;;;;4.10;0.40;;;8.60;99.90;;;;;;6124003;23;20551;-80
2024/03/29 03:52:13;;;;;;;3.30;0.75;;;8.70;99.90;;;;;;6123826;23;20005;-79
2024/03/29 03:54:39;;;;;;;2.92;0.20;;;8.70;99.90;;;;;;6157813;23;20009;-79
2024/03/29 03:57:06;;;;;;;2.40;0.30;;;8.70;99.90;;;;;;6124633;23;20434;-80
2024/03/29 03:59:32;;;;;;;1.70;0.22;;;8.70;99.90;;;;;;6100175;23;20016;-79
2024/03/29 04:01:58;;;;;;;2.08;0.25;;;8.70;99.90;;;;;;6100095;23;20322;-79
2024/03/29 04:04:25;;;;;;;3.08;0.40;;;8.70;99.90;;;;;;6122968;23;20009;-79
2024/03/29 04:06:51;;;;;;;3.65;0.40;;;8.70;99.90;;;;;;6124511;23;20018;-79
2024/03/29 04:09:17;;;;;;;3.55;0.30;;;8.60;99.90;;;;;;6159210;23;20310;-80
2024/03/29 04:11:44;;;;;;;4.18;0.63;;;8.60;99.90;;;;;;6158640;23;20001;-80
2024/03/29 04:14:10;;;;;;;2.97;0.20;;;8.60;99.90;;;;;;6147222;23;20009;-80
2024/03/29 04:16:37;;;;;;;1.88;0.20;;;8.60;99.90;;;;;;6099919;23;20005;-79
2024/03/29 04:19:03;;;;;;;1.35;0.20;;;8.60;99.90;;;;;;6099798;23;20009;-78
2024/03/29 04:21:29;;;;;;;1.73;0.30;;;8.60;99.90;;;;;;6158370;23;20475;-80
2024/03/29 04:23:55;;;;;;;2.72;0.20;;;8.50;99.90;;;;;;6098874;23;20420;-80
2024/03/29 04:26:22;;;;;;;2.65;0.20;;;8.50;99.90;;;;;;6098251;23;20024;-79
2024/03/29 04:28:48;;;;;;;2.08;0.30;;;8.50;99.90;;;;;;6157557;23;20001;-79
2024/03/29 04:31:15;;;;;;;1.58;0.10;;;8.40;99.90;;;;;;6133905;23;20012;-79
2024/03/29 04:33:41;;;;;;;0.77;0.10;;;8.40;99.90;;;;;;6157765;23;20430;-80
2024/03/29 04:36:08;;;;;;;2.83;0.38;;;8.40;99.90;;;;;;6122735;23;20016;-80
2024/03/29 04:38:35;;;;;;;0.90;0.10;;;8.30;99.90;;;;;;6147172;23;20451;-81
2024/03/29 04:41:01;;;;;;;0.40;0.03;;;8.40;99.90;;;;;;6097806;23;20492;-79
2024/03/29 04:43:29;;;;;;;1.35;0.25;;;8.30;99.90;;;;;;6123480;23;20009;-80
2024/03/29 04:46:11;;;;;;;2.05;0.20;;;8.40;99.90;;;;;;6124181;23;20009;-80
2024/03/29 04:48:41;;;;;;;2.95;0.17;;;8.30;99.90;;;;;;6099378;23;20505;-79
2024/03/29 04:51:09;;;;;;;0.88;0.30;;;8.30;99.90;;;;;;6099390;23;20016;-81
2024/03/29 04:53:37;;;;;;;2.78;0.10;;;8.30;99.90;;;;;;6098336;23;20005;-79
2024/03/29 04:56:04;;;;;;;1.05;0.10;;;8.30;99.90;;;;;;6133034;23;20008;-79
2024/03/29 04:58:30;;;;;;;0.85;0.10;;;8.30;99.90;;;;;;6158379;23;20020;-79
2024/03/29 05:00:57;;;;;;;0.93;0.10;;;8.30;99.90;;;;;;6098470;23;20013;-80
2024/03/29 05:03:24;;;;;;;1.35;0.20;;;8.20;99.90;;;;;;6098617;23;20009;-83
2024/03/29 05:05:52;;;;;;;1.25;0.10;;;8.20;99.90;;;;;;6122868;23;20303;-82
2024/03/29 05:08:21;;;;;;;2.03;0.10;;;8.20;99.90;;;;;;6099247;23;20449;-83
2024/03/29 05:10:51;;;;;;;0.70;0.10;;;8.10;99.90;;;;;;6122966;23;20001;-83
2024/03/29 05:13:19;;;;;;;1.95;0.47;;;8.10;99.90;;;;;;6097836;23;20320;-84
2024/03/29 05:15:47;;;;;;;1.65;0.20;;;8.10;99.90;;;;;;6133944;23;20013;-84
2024/03/29 05:18:14;;;;;;;1.27;0.20;;;8.00;99.90;;;;;;6099426;23;20001;-85
2024/03/29 05:20:41;;;;;;;0.75;0.20;;;8.00;99.90;;;;;;6098794;23;20028;-84
2024/03/29 05:23:07;;;;;;;1.75;0.30;;;8.00;99.90;;;;;;6122845;23;20005;-86
2024/03/29 05:25:34;;;;;;;1.80;0.20;;;7.90;99.90;;;;;;6122971;23;20453;-85
2024/03/29 05:28:01;;;;;;;1.55;0.30;;;7.90;99.90;;;;;;6099813;23;20012;-86
2024/03/29 05:30:28;;;;;;;4.38;0.73;;;7.90;99.90;;;;;;6157880;23;20179;-85
2024/03/29 05:32:55;;;;;;;2.67;0.30;;;7.90;99.90;;;;;;6157367;23;20335;-85
2024/03/29 05:35:21;;;;;;;2.95;0.55;;;7.80;99.90;;;;;;6134053;23;20012;-85
2024/03/29 05:37:51;;;;;;;3.05;0.40;;;7.80;99.90;;;;;;6149173;23;20009;-86
2024/03/29 05:40:17;;;;;;;1.85;0.30;;;7.80;99.90;;;;;;6125601;23;20513;-85
2024/03/29 05:42:43;;;;;;;2.97;0.73;;;7.80;99.90;;;;;;6125689;23;20005;-84
2024/03/29 05:45:29;;;;;;;1.15;0.40;;;7.70;99.90;;;;;;6147540;23;20005;-84
2024/03/29 05:47:57;;;;;;;2.38;0.40;;;7.70;99.90;;;;;;6125491;23;20040;-84
2024/03/29 05:50:24;;;;;;;1.38;0.30;;;7.70;99.90;;;;;;6123042;23;20005;-84
2024/03/29 05:52:52;;;;;;;2.03;0.40;;;7.70;99.90;;;;;;6147605;23;20008;-83
2024/03/29 05:55:19;;;;;;;3.05;0.50;;;7.70;99.90;;;;;;6122974;23;20330;-84
2024/03/29 05:57:45;;;;;;;1.88;0.25;;;7.70;99.90;;;;;;6099579;23;20009;-84
2024/03/29 06:00:15;;;;;;;1.70;0.40;;;7.70;99.90;;;;;;6122876;23;20013;-84
2024/03/29 06:02:45;;;;;;;1.52;0.57;;;7.70;99.90;;;;;;6098672;23;20323;-84
2024/03/29 06:05:11;;;;;;;2.10;0.20;;;7.70;99.90;;;;;;6098506;23;20012;-84
2024/03/29 06:07:38;;;;;;;2.97;0.20;;;7.70;99.90;;;;;;6131901;23;20012;-84
2024/03/29 06:10:05;;;;;;;3.60;0.20;;;7.70;99.90;;;;;;6128563;23;20001;-83
2024/03/29 06:12:33;;;;;;;2.28;0.20;;;7.80;99.90;;;;;;6100774;23;20013;-83
2024/03/29 06:17:45;;;;;;;1.30;0.20;;;7.80;99.90;;;;;;6148482;23;20016;-83
2024/03/29 06:20:12;;;;;;;0.77;0.17;;;7.80;99.90;;;;;;6099536;23;20377;-83
2024/03/29 06:22:39;;;;;;;0.40;0.10;;;7.80;99.90;;;;;;6099655;23;20009;-83
2024/03/29 06:25:05;;;;;;;1.33;0.30;;;7.80;99.90;;;;;;6098131;23;20500;-83
2024/03/29 06:27:33;;;;;;;1.88;0.40;;;7.90;99.90;;;;;;6124129;23;20005;-83
2024/03/29 06:30:00;;;;;;;1.70;0.43;;;7.90;99.90;;;;;;6122590;23;20005;-84
2024/03/29 06:32:26;;;;;;;0.47;0.10;;;7.90;99.90;;;;;;6098757;23;20031;-83
2024/03/29 06:34:52;;;;;;;0.60;0.10;;;7.90;99.90;;;;;;6114796;23;20009;-85
2024/03/29 06:37:21;;;;;;;1.63;0.20;;;7.90;99.90;;;;;;6123201;23;20020;-84
2024/03/29 06:39:51;;;;;;;1.65;0.20;;;8.00;99.90;;;;;;6122984;23;20012;-84
2024/03/29 06:42:18;;;;;;;0.95;0.30;;;8.00;99.90;;;;;;6122373;23;20465;-84
2024/03/29 06:44:45;;;;;;;2.03;0.30;;;7.90;99.90;;;;;;6146006;23;20449;-84
2024/03/29 06:47:11;;;;;;;0.95;0.20;;;7.90;99.90;;;;;;6122700;23;20016;-84
2024/03/29 06:49:39;;;;;;;3.55;0.38;;;7.90;99.90;;;;;;6123465;23;20016;-84
2024/03/29 06:52:05;;;;;;;1.00;0.30;;;7.90;99.90;;;;;;6134121;23;20005;-85
2024/03/29 06:54:34;;;;;;;1.85;0.30;;;7.80;99.90;;;;;;6098824;23;20413;-85
2024/03/29 06:57:01;;;;;;;2.05;0.50;;;7.80;99.90;;;;;;6099981;23;20013;-84
2024/03/29 06:59:27;;;;;;;1.88;0.30;;;7.90;99.90;;;;;;6123450;23;20446;-84
2024/03/29 07:01:54;;;;;;;1.30;0.30;;;7.90;99.90;;;;;;6122885;23;20013;-85
2024/03/29 07:04:23;;;;;;;1.77;0.30;;;7.90;99.90;;;;;;6132292;23;20009;-84
2024/03/29 07:06:52;;;;;;;1.90;0.30;;;7.90;99.90;;;;;;6099629;23;20477;-85
2024/03/29 07:09:21;;;;;;;1.17;0.40;;;7.90;99.90;;;;;;6184928;23;20061;-85
2024/03/29 07:11:48;;;;;;;3.22;0.50;;;7.90;99.90;;;;;;6158185;23;20005;-84
2024/03/29 07:14:15;;;;;;;2.20;0.40;;;7.90;99.90;;;;;;6098605;23;20001;-85
2024/03/29 07:16:42;;;;;;;2.40;0.70;;;7.90;99.90;;;;;;6099595;23;20013;-84
2024/03/29 07:19:12;;;;;;;2.35;0.73;;;8.00;99.90;;;;;;6099497;23;20009;-84
2024/03/29 07:21:43;;;;;;;1.98;0.50;;;8.00;99.90;;;;;;6122331;23;20066;-83
2024/03/29 07:24:10;;;;;;;2.05;0.60;;;8.00;99.90;;;;;;6159164;23;20004;-83
2024/03/29 07:26:36;;;;;;;4.75;1.08;;;8.00;99.90;;;;;;6126252;23;20341;-84
2024/03/29 07:29:05;;;;;;;2.78;0.77;;;8.00;99.90;;;;;;6159689;23;20005;-84
2024/03/29 07:31:33;;;;;;;1.45;0.60;;;8.10;99.90;;;;;;6126085;23;20013;-83
2024/03/29 07:33:59;;;;;;;2.88;0.70;;;8.10;99.90;;;;;;6101181;23;20016;-84
2024/03/29 07:36:31;;;;;;;1.65;0.50;;;8.20;99.90;;;;;;6102387;23;20024;-84
2024/03/29 07:39:00;;;;;;;2.08;0.40;;;8.30;99.90;;;;;;6126119;23;20001;-83
2024/03/29 07:41:27;;;;;;;1.77;0.35;;;8.30;99.90;;;;;;6126182;23;20036;-81
2024/03/29 07:44:00;;;;;;;1.95;0.30;;;8.40;99.90;;;;;;6159590;23;20008;-81
2024/03/29 07:46:34;;;;;;;2.65;0.40;;;8.40;99.90;;;;;;6102050;23;20016;-81
2024/03/29 07:49:01;;;;;;;1.02;0.38;;;8.40;99.90;;;;;;6125250;23;20352;-81
2024/03/29 07:51:27;;;;;;;1.52;0.50;;;8.40;99.90;;;;;;6101741;23;20012;-81
2024/03/29 07:53:54;;;;;;;1.17;0.40;;;8.40;99.90;;;;;;6124060;23;20001;-82
2024/03/29 07:56:21;;;;;;;0.82;0.50;;;8.40;99.90;;;;;;6134869;23;20001;-80
2024/03/29 07:58:52;;;;;;;2.35;0.70;;;8.40;99.90;;;;;;6125333;23;20005;-80
2024/03/29 08:01:22;;;;;;;1.90;0.50;;;8.40;99.90;;;;;;6159569;23;20015;-80
2024/03/29 08:03:55;;;;;;;0.98;0.40;;;8.40;99.90;;;;;;6123584;23;20077;-81
2024/03/29 08:06:23;;;;;;;1.35;0.50;;;8.40;99.90;;;;;;6101236;23;20028;-80
2024/03/29 08:08:50;;;;;;;1.15;0.40;;;8.40;99.90;;;;;;6150725;23;20005;-80
2024/03/29 08:11:17;;;;;;;2.83;0.52;;;8.40;99.90;;;;;;6150352;23;20005;-80
2024/03/29 08:13:43;;;;;;;1.45;0.50;;;8.40;99.90;;;;;;6129668;23;20004;-80
2024/03/29 08:16:10;;;;;;;3.65;1.35;;;8.50;99.90;;;;;;6149478;23;20013;-80
2024/03/29 08:18:37;;;;;;;2.47;1.13;;;8.50;99.90;;;;;;6101169;23;20001;-80
2024/03/29 08:21:03;;;;;;;3.60;1.02;;;8.50;99.90;;;;;;6125220;23;20267;-81
2024/03/29 08:23:30;;;;;;;2.05;0.70;;;8.60;99.90;;;;;;6160030;23;20409;-80
2024/03/29 08:25:57;;;;;;;2.05;0.50;;;8.60;99.90;;;;;;6149623;23;20020;-81
2024/03/29 08:28:23;;;;;;;1.17;0.60;;;8.60;99.90;;;;;;6126439;23;20016;-80
2024/03/29 08:30:59;;;;;;;1.27;0.40;;;8.60;99.90;;;;;;6124640;23;20020;-80
2024/03/29 08:33:30;;;;;;;0.93;0.47;;;8.60;99.90;;;;;;6159041;23;20338;-80
2024/03/29 08:35:56;;;;;;;2.25;0.50;;;8.60;99.90;;;;;;6147620;23;20024;-80
2024/03/29 08:38:23;;;;;;;0.82;0.40;;;8.70;99.90;;;;;;6149928;23;20005;-81
2024/03/29 08:40:50;;;;;;;1.88;0.50;;;8.70;99.90;;;;;;6149393;23;20013;-80
2024/03/29 08:43:19;;;;;;;2.70;0.60;;;8.80;99.90;;;;;;6125391;23;20012;-80
2024/03/29 08:45:45;;;;;;;2.13;0.50;;;8.90;99.90;;;;;;6125485;23;20041;-80
2024/03/29 08:48:12;;;;;;;2.25;0.50;;;8.90;99.90;;;;;;6101582;23;20354;-80
2024/03/29 08:50:38;;;;;;;1.48;0.50;;;9.00;99.90;;;;;;6135597;23;20119;-80
2024/03/29 08:53:05;;;;;;;1.95;0.50;;;9.10;99.90;;;;;;6125765;23;20424;-80
2024/03/29 08:55:33;;;;;;;1.92;0.50;;;9.20;99.90;;;;;;6186281;23;20330;-80
2024/03/29 08:58:00;;;;;;;1.63;0.50;;;9.20;99.90;;;;;;6161031;23;20014;-80
2024/03/29 09:00:28;;;;;;;2.05;0.50;;;9.40;99.90;;;;;;6160232;23;20009;-80
2024/03/29 09:02:56;;;;;;;3.80;0.70;;;9.50;99.90;;;;;;6101178;23;20373;-80
2024/03/29 09:05:22;;;;;;;2.28;0.40;;;9.60;99.90;;;;;;6125552;23;20326;-79
2024/03/29 09:07:49;;;;;;;2.55;0.70;;;9.70;99.90;;;;;;6126555;23;20005;-80
2024/03/29 09:10:16;;;;;;;1.98;0.50;;;9.70;99.90;;;;;;6101432;23;20012;-80
2024/03/29 09:12:43;;;;;;;2.85;0.77;;;9.80;99.90;;;;;;6126201;23;20012;-80
2024/03/29 09:15:13;;;;;;;2.40;0.50;;;9.80;99.90;;;;;;6160184;23;20322;-80
2024/03/29 09:17:40;;;;;;;1.52;0.45;;;9.80;99.90;;;;;;6150415;23;19997;-80
2024/03/29 09:20:07;;;;;;;2.83;0.95;;;9.90;99.90;;;;;;6101328;23;20389;-80
2024/03/29 09:22:34;;;;;;;2.30;0.50;;;10.00;99.90;;;;;;6125684;23;20325;-80
2024/03/29 09:25:01;;;;;;;2.03;0.63;;;10.20;99.90;;;;;;6125474;23;20314;-80
2024/03/29 09:27:28;;;;;;;2.17;0.60;;;10.30;99.90;;;;;;6151634;23;20326;-81
2024/03/29 09:29:58;;;;;;;2.97;0.50;;;10.50;99.90;;;;;;6150810;23;20027;-80
2024/03/29 09:32:24;;;;;;;0.88;0.35;;;10.50;99.90;;;;;;6126725;23;20500;-81
2024/03/29 09:34:51;;;;;;;1.40;0.30;;;10.60;99.90;;;;;;6125737;23;20020;-81
2024/03/29 09:37:20;;;;;;;1.98;0.52;;;10.60;99.90;;;;;;6102977;23;20005;-80
2024/03/29 09:39:46;;;;;;;3.88;1.00;;;10.80;99.90;;;;;;6160870;23;20410;-81
2024/03/29 09:42:16;;;;;;;2.72;0.60;;;11.00;99.90;;;;;;6125281;23;20369;-80
2024/03/29 09:44:45;;;;;;;2.88;0.90;;;11.10;99.90;;;;;;6158244;23;20005;-81
2024/03/29 09:47:16;;;;;;;2.65;0.63;;;11.40;99.90;;;;;;6135534;23;20000;-81
2024/03/29 09:49:44;;;;;;;2.03;0.60;;;11.60;99.90;;;;;;6125250;23;20008;-81
2024/03/29 09:52:12;;;;;;;2.15;0.40;;;11.60;99.90;;;;;;6101075;23;19997;-80
2024/03/29 09:54:39;;;;;;;2.75;1.02;;;11.80;99.90;;;;;;6123806;23;20020;-80
2024/03/29 09:57:05;;;;;;;3.13;0.60;;;12.10;99.90;;;;;;6099618;23;20009;-80
2024/03/29 09:59:34;;;;;;;1.95;0.85;;;12.40;99.90;;;;;;6159098;23;20001;-80
2024/03/29 10:02:11;;;;;;;2.90;0.90;;;12.60;99.90;;;;;;6099666;23;20373;-81
2024/03/29 10:04:38;;;;;;;1.67;0.60;;;12.60;99.90;;;;;;6098804;23;20374;-80
2024/03/29 10:07:05;;;;;;;2.47;0.50;;;12.60;99.90;;;;;;6124487;23;20040;-81
2024/03/29 10:09:33;;;;;;;1.45;0.43;;;12.60;99.90;;;;;;6148164;23;20008;-82
2024/03/29 10:11:59;;;;;;;2.92;0.50;;;12.60;99.90;;;;;;6100570;23;20009;-81
2024/03/29 10:14:26;;;;;;;1.98;0.40;;;12.70;99.90;;;;;;6099703;23;20008;-83
2024/03/29 10:16:53;;;;;;;3.30;1.02;;;12.70;99.90;;;;;;6160058;23;20376;-81
2024/03/29 10:19:22;;;;;;;2.83;0.60;;;12.80;99.90;;;;;;6148611;23;20300;-83
2024/03/29 10:21:51;;;;;;;2.45;0.68;;;12.80;99.90;;;;;;6124951;23;20017;-82
2024/03/29 10:24:19;;;;;;;3.67;1.10;;;12.90;99.90;;;;;;6123128;23;20032;-83
2024/03/29 10:26:46;;;;;;;1.42;0.50;;;12.90;99.90;;;;;;6134740;23;20438;-84
2024/03/29 10:29:13;;;;;;;3.03;0.50;;;13.00;99.90;;;;;;6100288;23;20452;-84
2024/03/29 10:31:39;;;;;;;4.30;0.50;;;13.00;99.90;;;;;;6148638;23;20319;-84
2024/03/29 10:34:08;;;;;;;2.15;0.50;;;13.10;99.90;;;;;;6121687;23;20001;-80
2024/03/29 10:36:35;;;;;;;1.75;0.45;;;13.20;99.90;;;;;;6159192;23;20553;-81
2024/03/29 10:39:12;;;;;;;1.85;0.40;;;13.40;99.90;;;;;;6100021;23;20015;-81
2024/03/29 10:41:41;;;;;;;1.55;0.40;;;13.60;99.90;;;;;;6158647;23;20009;-81
2024/03/29 10:44:11;;;;;;;2.30;0.40;;;13.70;99.90;;;;;;6158011;23;19997;-80
2024/03/29 10:46:47;;;;;;;2.00;0.60;;;13.80;99.90;;;;;;6124167;23;20008;-80
2024/03/29 10:49:17;;;;;;;2.03;0.57;;;14.00;99.90;;;;;;6099474;23;20005;-81
2024/03/29 10:51:43;;;;;;;1.40;0.40;;;14.40;99.90;;;;;;6158432;23;20001;-82
2024/03/29 10:54:11;;;;;;;1.85;0.52;;;14.60;99.90;;;;;;6157746;23;20012;-81
2024/03/29 10:56:38;;;;;;;2.72;0.38;;;14.70;99.90;;;;;;6183977;23;20001;-83
2024/03/29 10:59:46;;;;;;;3.97;0.40;;;14.90;99.90;;;;;;6123012;23;20016;-80
2024/03/29 11:02:30;;;;;;;2.20;1.08;;;15.10;99.90;;;;;;6099800;23;20016;-84
2024/03/29 11:05:02;;;;;;;2.97;1.52;;;15.30;99.90;;;;;;6122946;23;19997;-82
2024/03/29 11:07:29;;;;;;;1.77;0.60;;;15.40;99.90;;;;;;6134298;23;19997;-80
2024/03/29 11:10:00;;;;;;;1.65;0.40;;;15.40;99.90;;;;;;6158580;23;20269;-81
2024/03/29 11:12:27;;;;;;;1.67;0.40;;;15.40;99.90;;;;;;6158742;23;20441;-82
2024/03/29 11:15:06;;;;;;;0.98;0.30;;;15.40;99.90;;;;;;6098357;23;20005;-80
2024/03/29 11:17:32;;;;;;;2.20;0.45;;;15.40;99.90;;;;;;6124756;23;20016;-81
2024/03/29 11:20:04;;;;;;;1.70;0.50;;;15.50;99.90;;;;;;6185996;23;20009;-81
2024/03/29 11:22:31;;;;;;;1.83;0.30;;;15.90;99.90;;;;;;6158240;23;20016;-81
2024/03/29 11:24:58;;;;;;;2.22;0.57;;;16.50;99.90;;;;;;6183453;23;20020;-81
2024/03/29 11:27:24;;;;;;;2.92;0.40;;;16.80;99.90;;;;;;6134465;23;20001;-83
2024/03/29 11:29:52;;;;;;;1.85;0.40;;;17.00;99.90;;;;;;6100609;23;20008;-81
2024/03/29 11:32:41;;;;;;;0.90;0.40;;;17.00;99.90;;;;;;6159520;23;20394;-81
2024/03/29 11:35:14;;;;;;;4.47;0.63;;;16.80;99.90;;;;;;6099379;23;20001;-82
2024/03/29 11:37:40;;;;;;;4.07;0.40;;;16.60;99.90;;;;;;6124636;23;20016;-82
2024/03/29 11:40:10;;;;;;;1.10;0.30;;;16.50;99.90;;;;;;6160109;23;20005;-82
2024/03/29 11:42:43;;;;;;;1.48;0.30;;;16.60;99.90;;;;;;6134970;23;20009;-80
2024/03/29 11:45:11;;;;;;;1.35;0.40;;;16.60;99.90;;;;;;6134206;23;20317;-79
2024/03/29 11:47:40;;;;;;;1.20;0.30;;;16.60;99.90;;;;;;6159781;23;20288;-80
2024/03/29 11:50:08;;;;;;;2.30;0.43;;;16.60;99.90;;;;;;6134517;23;20009;-80
2024/03/29 11:52:35;;;;;;;1.15;0.30;;;16.70;99.90;;;;;;6100023;23;20430;-81
2024/03/29 11:55:01;;;;;;;0.75;0.30;;;16.80;99.90;;;;;;6158272;23;20009;-81
2024/03/29 11:57:30;;;;;;;1.23;0.43;;;16.60;99.90;;;;;;6185289;23;20442;-81
2024/03/29 11:59:57;;;;;;;2.38;0.40;;;16.70;99.90;;;;;;6148441;23;20050;-77
2024/03/29 12:02:23;;;;;;;1.13;0.30;;;16.70;99.90;;;;;;6120980;23;20472;-81
2024/03/29 12:04:50;;;;;;;1.50;0.40;;;16.70;99.90;;;;;;6133525;23;19997;-81
2024/03/29 12:07:16;;;;;;;1.77;0.50;;;16.50;99.90;;;;;;6122945;23;20461;-79
2024/03/29 12:09:45;;;;;;;1.88;0.90;;;16.60;99.90;;;;;;6159254;23;19997;-83
2024/03/29 12:12:12;;;;;;;1.30;0.35;;;16.80;99.90;;;;;;6125228;23;20001;-84
2024/03/29 12:14:38;;;;;;;1.90;0.30;;;16.70;99.90;;;;;;6149313;23;20023;-81
2024/03/29 12:17:11;;;;;;;1.58;0.20;;;16.80;99.90;;;;;;6101108;23;20057;-81
2024/03/29 12:19:41;;;;;;;1.00;0.30;;;16.90;99.90;;;;;;6100615;23;20009;-82
2024/03/29 12:22:09;;;;;;;0.77;0.20;;;16.90;99.90;;;;;;6124578;23;20465;-82
2024/03/29 12:24:36;;;;;;;0.82;0.20;;;16.90;99.90;;;;;;6133560;23;20001;-82
2024/03/29 12:27:03;;;;;;;0.88;0.25;;;17.10;99.90;;;;;;6186539;23;20460;-81
2024/03/29 12:29:29;;;;;;;0.85;0.20;;;17.20;99.90;;;;;;6125677;23;20012;-86
2024/03/29 12:32:02;;;;;;;0.75;0.10;;;17.50;99.90;;;;;;6187095;23;20012;-85
2024/03/29 12:34:29;;;;;;;0.50;0.22;;;17.70;99.90;;;;;;6099859;23;20004;-85
2024/03/29 12:36:58;;;;;;;2.40;0.43;;;18.10;99.90;;;;;;6125889;23;20016;-85
2024/03/29 12:39:26;;;;;;;0.50;0.15;;;18.80;99.90;;;;;;6101102;23;20009;-81
2024/03/29 12:41:56;;;;;;;2.15;0.20;;;19.00;99.90;;;;;;6101313;23;20017;-80
2024/03/29 12:44:23;;;;;;;0.55;0.20;;;19.40;99.90;;;;;;6149295;23;20012;-80
2024/03/29 12:46:49;;;;;;;0.60;0.20;;;19.90;99.90;;;;;;6136644;23;20005;-87
2024/03/29 12:49:16;;;;;;;0.40;0.10;;;20.00;99.90;;;;;;6125611;23;20012;-86
2024/03/29 12:51:44;;;;;;;0.70;0.20;;;20.10;99.90;;;;;;6125599;23;20035;-83
2024/03/29 12:54:10;;;;;;;0.45;0.15;;;20.00;99.90;;;;;;6134304;23;20001;-84
2024/03/29 12:56:38;;;;;;;0.75;0.20;;;19.70;99.90;;;;;;6158635;23;20445;-84
2024/03/29 12:59:05;;;;;;;0.57;0.20;;;19.30;99.90;;;;;;6125120;23;20323;-84
2024/03/29 13:01:31;;;;;;;1.13;0.20;;;18.90;99.90;;;;;;6158986;23;20055;-83
2024/03/29 13:03:58;;;;;;;0.75;0.30;;;18.60;99.90;;;;;;6099999;23;20449;-85